Time;durP1;ratioP1;P1;durP2;ratioP2;P2;SDS_P1;SDS_P2;PMS_P1;PMS_P2;Temp;Humidity;BMP_temperature;BMP_pressure;BME280_temperature;BME280_humidity;BME280_pressure;Samples;Min_cycle;Max_cycle;Signal;HPM_P1;HPM_P2
2021/08/09 00:00:58;;;;;;;15.85;6.60;;;;;;;15.52;94.24;99544.19;1709764;84;21090;-78
2021/08/09 00:03:24;;;;;;;12.33;7.37;;;;;;;15.52;94.29;99546.95;1693753;83;20971;-79
2021/08/09 00:05:52;;;;;;;15.70;7.05;;;;;;;15.50;94.27;99549.27;1682631;84;21470;-80
2021/08/09 00:08:21;;;;;;;16.35;7.30;;;;;;;15.45;94.31;99541.20;1682774;84;21062;-79
2021/08/09 00:10:47;;;;;;;10.28;7.08;;;;;;;15.43;94.34;99539.36;1682638;85;20972;-80
2021/08/09 00:13:16;;;;;;;17.25;7.62;;;;;;;15.41;94.36;99543.05;1682677;84;21427;-78
2021/08/09 00:15:42;;;;;;;14.50;7.25;;;;;;;15.39;94.48;99539.83;1682598;84;20997;-78
2021/08/09 00:18:11;;;;;;;13.00;7.42;;;;;;;15.38;94.49;99536.83;1682654;84;20936;-80
2021/08/09 00:20:38;;;;;;;13.95;7.80;;;;;;;15.35;94.64;99531.42;1682477;85;20999;-81
2021/08/09 00:23:06;;;;;;;21.30;8.13;;;;;;;15.33;94.65;99528.20;1682622;84;20924;-80
2021/08/09 00:25:34;;;;;;;16.80;7.40;;;;;;;15.29;94.76;99523.13;1682668;84;20937;-80
2021/08/09 00:28:03;;;;;;;15.00;7.30;;;;;;;15.27;94.88;99521.28;1682600;84;20951;-82
2021/08/09 00:30:30;;;;;;;13.95;7.67;;;;;;;15.26;94.87;99517.48;1682645;85;21023;-82
2021/08/09 00:32:58;;;;;;;15.98;6.75;;;;;;;15.25;94.99;99516.67;1682546;84;20909;-81
2021/08/09 00:35:27;;;;;;;19.98;7.47;;;;;;;15.24;94.96;99522.55;1682961;84;21459;-81
2021/08/09 00:37:55;;;;;;;13.00;7.35;;;;;;;15.22;95.08;99515.19;1682540;84;21729;-81
2021/08/09 00:40:23;;;;;;;14.25;7.10;;;;;;;15.20;95.18;99516.34;1682550;84;21463;-81
2021/08/09 00:42:52;;;;;;;12.43;7.70;;;;;;;15.21;95.18;99513.00;1682629;84;21475;-81
2021/08/09 00:45:21;;;;;;;13.75;7.75;;;;;;;15.19;95.20;99512.53;1682494;85;20979;-78
2021/08/09 00:47:48;;;;;;;13.90;7.08;;;;;;;15.18;95.15;99513.69;1682910;85;20928;-79
2021/08/09 00:50:15;;;;;;;12.53;7.03;;;;;;;15.16;95.21;99515.99;1682663;85;21066;-79
2021/08/09 00:52:43;;;;;;;19.45;7.67;;;;;;;15.14;95.27;99514.15;1682466;84;20943;-80
2021/08/09 00:55:10;;;;;;;17.55;7.55;;;;;;;15.12;95.25;99517.27;1674581;85;20957;-79
2021/08/09 00:57:37;;;;;;;19.12;8.18;;;;;;;15.07;95.41;99517.49;1674646;85;20893;-79
2021/08/09 01:00:06;;;;;;;15.88;7.60;;;;;;;15.02;95.71;99514.19;1682456;84;20968;-80
2021/08/09 01:02:34;;;;;;;15.13;7.67;;;;;;;14.99;95.74;99509.34;1686000;83;21120;-79
2021/08/09 01:05:05;;;;;;;18.45;7.03;;;;;;;14.95;95.72;99506.47;1722936;83;21490;-79
2021/08/09 01:07:55;;;;;;;15.43;7.78;;;;;;;14.93;95.93;99506.58;1722895;83;20923;-79
2021/08/09 01:10:46;;;;;;;18.02;7.83;;;;;;;14.92;95.96;99504.97;1724437;82;20856;-80
2021/08/09 01:13:26;;;;;;;16.02;7.78;;;;;;;14.90;95.96;99502.55;1720902;83;20923;-80
2021/08/09 01:15:58;;;;;;;17.60;7.20;;;;;;;14.89;96.29;99500.94;1722764;83;21883;-80
2021/08/09 01:18:26;;;;;;;18.60;8.35;;;;;;;14.87;96.23;99492.19;1723153;83;20884;-79
2021/08/09 01:20:58;;;;;;;16.97;7.97;;;;;;;14.86;96.18;99491.95;1696383;83;20991;-79
2021/08/09 01:24:20;;;;;;;12.58;8.48;;;;;;;14.84;96.22;99492.30;1723046;83;20871;-79
2021/08/09 01:27:03;;;;;;;18.10;7.50;;;;;;;14.83;96.30;99494.03;1722854;83;21482;-79
2021/08/09 01:29:42;;;;;;;12.85;7.33;;;;;;;14.82;96.41;99501.51;1722573;83;22332;-79
2021/08/09 01:32:09;;;;;;;19.48;7.87;;;;;;;14.80;96.47;99494.14;1722809;83;20927;-79
2021/08/09 01:34:35;;;;;;;14.93;7.12;;;;;;;14.77;96.46;99494.02;1722666;83;20995;-80
2021/08/09 01:37:04;;;;;;;26.52;6.97;;;;;;;14.76;96.50;99489.64;1722532;83;20971;-80
2021/08/09 01:39:32;;;;;;;19.27;7.58;;;;;;;14.74;96.58;99487.23;1722685;83;20994;-79
2021/08/09 01:41:59;;;;;;;17.32;7.03;;;;;;;14.72;96.41;99486.77;1722632;83;21123;-79
2021/08/09 01:44:26;;;;;;;16.23;7.40;;;;;;;14.68;96.35;99485.84;1722537;83;21682;-79
2021/08/09 01:46:53;;;;;;;19.70;8.30;;;;;;;14.65;96.46;99482.38;1722756;83;21470;-81
2021/08/09 01:49:20;;;;;;;21.65;7.97;;;;;;;14.64;96.58;99494.59;1722559;83;21010;-79
2021/08/09 01:51:48;;;;;;;14.18;7.58;;;;;;;14.63;96.64;99494.93;1722605;83;20889;-79
2021/08/09 01:54:16;;;;;;;14.00;7.78;;;;;;;14.63;96.70;99494.35;1696297;83;23249;-79
2021/08/09 01:56:43;;;;;;;16.07;7.00;;;;;;;14.62;96.78;99496.08;1722702;83;21561;-78
2021/08/09 01:59:10;;;;;;;13.05;6.72;;;;;;;14.62;96.90;99493.31;1722680;83;21018;-80
2021/08/09 02:01:40;;;;;;;13.88;6.97;;;;;;;14.61;96.95;99492.52;1722603;83;20919;-79
2021/08/09 02:04:09;;;;;;;20.35;7.28;;;;;;;14.60;96.94;99495.61;1715315;83;21471;-79
2021/08/09 02:06:35;;;;;;;14.38;7.53;;;;;;;14.58;96.98;99492.39;1709711;84;22321;-79
2021/08/09 02:09:02;;;;;;;14.23;6.08;;;;;;;14.54;96.81;99497.80;1709694;84;20971;-79
2021/08/09 02:12:01;;;;;;;13.35;6.30;;;;;;;14.51;96.87;99490.19;1691722;84;20996;-79
2021/08/09 02:14:33;;;;;;;11.50;6.00;;;;;;;14.48;96.98;99490.30;1709834;83;20888;-82
2021/08/09 02:17:06;;;;;;;27.00;7.20;;;;;;;14.48;97.05;99493.64;1685793;84;21057;-79
2021/08/09 02:19:50;;;;;;;25.65;8.45;;;;;;;14.44;97.03;99494.90;1658270;85;21123;-79
2021/08/09 02:22:47;;;;;;;11.45;6.85;;;;;;;14.42;97.17;99501.37;1645432;86;20899;-80
2021/08/09 02:25:16;;;;;;;18.55;6.78;;;;;;;14.40;97.38;99505.02;1688619;85;21474;-78
2021/08/09 02:27:47;;;;;;;11.53;5.80;;;;;;;14.38;97.65;99510.65;1688227;85;20974;-78
2021/08/09 02:30:18;;;;;;;15.63;7.10;;;;;;;14.37;97.82;99505.70;1661015;85;21494;-79
2021/08/09 02:32:47;;;;;;;27.32;6.78;;;;;;;14.39;97.92;99505.36;1660914;85;21463;-79
2021/08/09 02:35:17;;;;;;;13.05;7.00;;;;;;;14.39;97.76;99505.36;1688149;84;20883;-79
2021/08/09 02:37:46;;;;;;;14.58;6.67;;;;;;;14.38;97.55;99505.13;1688482;85;20930;-78
2021/08/09 02:40:13;;;;;;;10.32;6.75;;;;;;;14.36;97.60;99510.18;1688430;84;21478;-79
2021/08/09 02:42:41;;;;;;;13.98;6.65;;;;;;;14.35;97.72;99504.42;1688414;85;21017;-79
2021/08/09 02:45:11;;;;;;;18.27;7.05;;;;;;;14.34;97.71;99499.48;1688286;84;21066;-79
2021/08/09 02:47:38;;;;;;;15.75;7.25;;;;;;;14.34;97.67;99501.44;1688244;85;20888;-80
2021/08/09 02:50:09;;;;;;;10.45;6.17;;;;;;;14.33;97.68;99508.11;1688507;84;21438;-79
2021/08/09 02:52:39;;;;;;;12.55;6.47;;;;;;;14.30;97.67;99510.16;1688490;85;20943;-81
2021/08/09 02:55:08;;;;;;;12.95;6.28;;;;;;;14.29;97.83;99516.84;1688672;84;20935;-81
2021/08/09 02:57:36;;;;;;;17.40;6.30;;;;;;;14.29;98.07;99513.50;1688384;85;21137;-79
2021/08/09 03:00:06;;;;;;;13.38;6.03;;;;;;;14.30;98.04;99515.11;1688579;84;21561;-79
2021/08/09 03:02:37;;;;;;;15.40;6.83;;;;;;;14.29;98.12;99514.88;1688382;84;20982;-80
2021/08/09 03:05:07;;;;;;;15.10;6.22;;;;;;;14.30;98.22;99519.25;1688264;84;20994;-74
2021/08/09 03:07:37;;;;;;;18.65;6.20;;;;;;;14.32;98.39;99523.06;1688409;85;20947;-76
2021/08/09 03:10:10;;;;;;;13.43;7.45;;;;;;;14.35;98.65;99528.70;1688539;85;21841;-78
2021/08/09 03:12:39;;;;;;;15.93;6.92;;;;;;;14.37;98.64;99527.79;1688279;84;20939;-78
2021/08/09 03:15:09;;;;;;;13.55;7.00;;;;;;;14.36;98.80;99529.52;1688403;84;20863;-80
2021/08/09 03:17:37;;;;;;;14.47;6.62;;;;;;;14.37;99.03;99538.03;1688270;85;20951;-79
2021/08/09 03:20:07;;;;;;;11.08;6.80;;;;;;;14.38;99.26;99533.55;1688286;84;20927;-74
2021/08/09 03:22:34;;;;;;;8.80;6.00;;;;;;;14.41;99.35;99539.80;1709783;81;21129;-79
2021/08/09 03:25:01;;;;;;;12.35;6.95;;;;;;;14.47;99.47;99547.27;1689795;83;21030;-78
2021/08/09 03:27:28;;;;;;;9.35;6.30;;;;;;;14.50;99.52;99542.44;1688592;85;20903;-78
2021/08/09 03:29:54;;;;;;;11.12;6.58;;;;;;;14.53;99.65;99545.33;1688293;85;21034;-78
2021/08/09 03:32:21;;;;;;;10.03;6.50;;;;;;;14.58;99.84;99546.26;1688477;85;20951;-77
2021/08/09 03:34:48;;;;;;;12.73;6.95;;;;;;;14.62;100.00;99542.47;1688496;84;21415;-79
2021/08/09 03:37:15;;;;;;;12.80;6.85;;;;;;;14.68;100.00;99542.48;1688178;84;20928;-79
2021/08/09 03:39:42;;;;;;;10.32;6.80;;;;;;;14.76;100.00;99540.19;1688311;84;20979;-80
2021/08/09 03:42:09;;;;;;;20.80;6.80;;;;;;;14.86;100.00;99545.84;1688171;84;20943;-79
2021/08/09 03:44:36;;;;;;;11.88;6.30;;;;;;;14.94;100.00;99544.94;1688158;85;20946;-80
2021/08/09 03:47:03;;;;;;;11.55;6.25;;;;;;;15.02;100.00;99552.89;1688534;83;21764;-79
2021/08/09 03:49:30;;;;;;;13.10;6.58;;;;;;;15.13;100.00;99553.44;1688348;84;21438;-79
2021/08/09 03:51:56;;;;;;;14.78;6.97;;;;;;;15.24;100.00;99546.87;1688303;85;21416;-73
2021/08/09 03:54:23;;;;;;;11.00;5.83;;;;;;;15.36;100.00;99539.95;1688790;81;21015;-75
2021/08/09 03:56:50;;;;;;;10.53;6.03;;;;;;;15.49;100.00;99542.12;1727936;81;20966;-75
2021/08/09 03:59:16;;;;;;;18.42;7.10;;;;;;;15.62;100.00;99538.17;1723985;81;21130;-72
2021/08/09 04:01:45;;;;;;;13.62;6.60;;;;;;;15.76;100.00;99536.41;1721182;83;21499;-74
2021/08/09 04:04:11;;;;;;;13.83;6.95;;;;;;;15.91;100.00;99537.06;1718346;82;21046;-73
2021/08/09 04:06:38;;;;;;;11.50;6.55;;;;;;;16.09;100.00;99540.34;1712840;83;22166;-75
2021/08/09 04:09:08;;;;;;;13.13;6.70;;;;;;;16.24;100.00;99539.55;1710479;83;20989;-75
2021/08/09 04:11:36;;;;;;;11.80;7.30;;;;;;;16.38;100.00;99544.11;1705098;81;21202;-77
2021/08/09 04:14:04;;;;;;;14.58;6.95;;;;;;;16.54;100.00;99544.13;1692484;84;20975;-74
2021/08/09 04:16:31;;;;;;;7.78;6.37;;;;;;;16.66;100.00;99543.29;1693703;84;21514;-74
2021/08/09 04:18:58;;;;;;;14.45;6.42;;;;;;;16.80;100.00;99545.02;1687403;83;21507;-75
2021/08/09 04:21:24;;;;;;;11.55;6.97;;;;;;;16.94;100.00;99550.92;1682968;85;21024;-74
2021/08/09 04:23:53;;;;;;;10.13;6.12;;;;;;;17.08;100.00;99544.92;1682784;85;21148;-74
2021/08/09 04:26:20;;;;;;;9.30;5.50;;;;;;;17.20;100.00;99541.25;1682847;85;21034;-77
2021/08/09 04:28:48;;;;;;;9.53;5.92;;;;;;;17.31;100.00;99543.11;1682683;85;20988;-77
2021/08/09 04:31:17;;;;;;;12.37;6.10;;;;;;;17.43;100.00;99541.59;1682641;85;21000;-77
2021/08/09 04:33:45;;;;;;;17.15;6.55;;;;;;;17.54;100.00;99537.67;1682844;85;21068;-74
2021/08/09 04:36:14;;;;;;;9.23;5.62;;;;;;;17.67;100.00;99540.57;1683871;85;21072;-75
2021/08/09 04:38:41;;;;;;;13.65;6.28;;;;;;;17.77;100.00;99537.22;1706348;83;20951;-78
2021/08/09 04:41:10;;;;;;;9.93;5.45;;;;;;;17.89;98.85;99546.59;1723247;83;20838;-78
2021/08/09 04:43:38;;;;;;;9.18;5.62;;;;;;;18.03;97.74;99549.64;1723221;83;21405;-76
2021/08/09 04:46:06;;;;;;;10.40;6.03;;;;;;;18.18;97.33;99543.79;1723118;83;20904;-75
2021/08/09 04:48:34;;;;;;;9.43;6.08;;;;;;;18.29;96.46;99541.44;1697162;83;21769;-75
2021/08/09 04:51:00;;;;;;;12.35;7.00;;;;;;;18.41;95.82;99546.04;1723074;83;21514;-76
2021/08/09 04:53:27;;;;;;;14.78;6.65;;;;;;;18.52;95.59;99540.06;1720361;83;21504;-74
2021/08/09 04:55:56;;;;;;;12.07;6.53;;;;;;;18.59;94.98;99538.80;1714853;83;22185;-73
2021/08/09 04:58:22;;;;;;;12.82;6.25;;;;;;;18.71;95.33;99540.05;1718475;83;21461;-75
2021/08/09 05:00:51;;;;;;;8.63;6.05;;;;;;;18.85;94.92;99542.87;1716650;83;21949;-74
2021/08/09 05:03:17;;;;;;;16.77;5.72;;;;;;;18.98;94.63;99533.97;1715424;83;21109;-74
2021/08/09 05:05:45;;;;;;;12.30;5.87;;;;;;;19.13;94.39;99532.99;1694583;83;21593;-75
2021/08/09 05:08:12;;;;;;;16.48;5.40;;;;;;;19.27;93.51;99524.06;1687251;84;21016;-75
2021/08/09 05:10:39;;;;;;;9.48;5.30;;;;;;;19.43;92.72;99529.48;1690507;84;20932;-75
2021/08/09 05:13:07;;;;;;;12.28;5.95;;;;;;;19.58;92.21;99528.53;1695168;84;23220;-76
2021/08/09 05:15:37;;;;;;;9.88;5.30;;;;;;;19.71;91.04;99522.92;1695203;84;21423;-75
2021/08/09 05:18:04;;;;;;;12.35;5.50;;;;;;;19.88;88.62;99524.34;1695469;84;20948;-75
2021/08/09 05:20:31;;;;;;;9.38;5.00;;;;;;;20.06;88.80;99532.92;1695093;84;21035;-76
2021/08/09 05:22:57;;;;;;;8.53;4.92;;;;;;;20.22;88.08;99529.92;1695403;84;20855;-69
2021/08/09 05:25:24;;;;;;;8.68;4.97;;;;;;;20.39;86.81;99541.28;1695166;84;21126;-72
2021/08/09 05:27:52;;;;;;;10.88;4.47;;;;;;;20.52;83.71;99545.20;1690347;83;21024;-71
2021/08/09 05:30:20;;;;;;;8.60;4.42;;;;;;;20.66;82.41;99549.53;1656172;86;20879;-72
2021/08/09 05:32:47;;;;;;;11.20;4.10;;;;;;;20.79;80.21;99555.05;1617781;88;21476;-70
2021/08/09 05:35:13;;;;;;;10.55;4.15;;;;;;;20.90;80.29;99554.52;1618859;87;21607;-71
2021/08/09 05:37:41;;;;;;;6.28;4.30;;;;;;;21.02;77.99;99555.63;1618129;87;21512;-71
2021/08/09 05:40:12;;;;;;;10.80;4.28;;;;;;;21.16;77.25;99559.73;1618260;87;20993;-70
2021/08/09 05:42:38;;;;;;;11.08;4.50;;;;;;;21.26;76.41;99556.26;1578788;89;20955;-71
2021/08/09 05:45:07;;;;;;;17.23;4.92;;;;;;;21.39;75.95;99556.12;1652130;86;20962;-71
2021/08/09 05:47:37;;;;;;;10.30;5.25;;;;;;;21.51;76.08;99561.41;1652607;86;20935;-71
2021/08/09 05:50:07;;;;;;;8.10;4.70;;;;;;;21.64;76.36;99561.29;1652246;86;21153;-71
2021/08/09 05:52:36;;;;;;;13.55;4.92;;;;;;;21.74;74.59;99565.34;1650859;85;20942;-71
2021/08/09 05:55:10;;;;;;;7.53;4.45;;;;;;;21.84;73.82;99562.41;1652934;86;20911;-71
2021/08/09 05:57:37;;;;;;;8.20;5.03;;;;;;;21.95;72.90;99560.47;1653376;85;20998;-71
2021/08/09 06:00:06;;;;;;;8.60;5.60;;;;;;;22.05;72.82;99566.11;1671091;85;21000;-78
2021/08/09 06:02:42;;;;;;;7.33;4.62;;;;;;;22.16;73.52;99566.16;1649280;86;21225;-78
2021/08/09 06:05:12;;;;;;;14.00;5.28;;;;;;;22.27;73.38;99556.42;1650341;86;20983;-78
2021/08/09 06:07:38;;;;;;;8.73;5.75;;;;;;;22.37;72.67;99552.27;1631281;87;20939;-76
2021/08/09 06:10:07;;;;;;;12.35;5.15;;;;;;;22.48;71.78;99555.09;1650323;87;20985;-80
2021/08/09 06:12:36;;;;;;;7.80;5.65;;;;;;;22.62;72.58;99557.09;1650479;87;21006;-79
2021/08/09 06:15:05;;;;;;;20.45;6.37;;;;;;;22.75;71.03;99551.33;1650376;87;21229;-74
2021/08/09 06:17:34;;;;;;;8.13;4.83;;;;;;;22.86;70.93;99549.38;1629678;85;21213;-78
2021/08/09 06:20:04;;;;;;;9.28;4.90;;;;;;;23.00;70.83;99549.39;1666407;85;21038;-71
2021/08/09 06:22:32;;;;;;;6.12;4.28;;;;;;;23.12;68.35;99541.17;1649757;87;21533;-71
2021/08/09 06:24:59;;;;;;;6.30;5.00;;;;;;;23.21;65.54;99543.56;1649702;87;21042;-71
2021/08/09 06:27:26;;;;;;;5.53;4.20;;;;;;;23.29;64.67;99546.56;1649720;87;21157;-78
2021/08/09 06:29:53;;;;;;;10.70;4.87;;;;;;;23.36;64.61;99540.95;1649907;85;21490;-78
2021/08/09 06:32:20;;;;;;;15.60;4.60;;;;;;;23.47;66.53;99545.14;1649856;87;21690;-77
2021/08/09 06:34:47;;;;;;;9.40;5.00;;;;;;;23.57;64.16;99545.16;1649812;85;21085;-78
2021/08/09 06:37:15;;;;;;;14.73;4.62;;;;;;;23.67;64.58;99544.94;1649802;85;21018;-78
2021/08/09 06:39:42;;;;;;;7.55;4.20;;;;;;;23.78;64.45;99547.09;1649727;87;21605;-77
2021/08/09 06:42:09;;;;;;;10.50;4.25;;;;;;;23.86;63.58;99551.47;1649613;87;21045;-78
2021/08/09 06:44:37;;;;;;;14.13;4.15;;;;;;;23.95;63.10;99548.24;1649045;87;21074;-76
2021/08/09 06:47:04;;;;;;;10.32;3.90;;;;;;;24.05;62.94;99543.20;1649667;87;21070;-77
2021/08/09 06:49:31;;;;;;;10.55;4.50;;;;;;;24.15;62.90;99541.56;1669023;83;21535;-79
2021/08/09 06:51:58;;;;;;;5.12;4.05;;;;;;;24.25;62.55;99540.14;1669036;85;21079;-77
2021/08/09 06:54:25;;;;;;;5.62;3.70;;;;;;;24.39;61.40;99556.68;1686938;85;21557;-75
2021/08/09 06:56:53;;;;;;;11.60;3.92;;;;;;;24.49;59.78;99566.45;1682186;84;20962;-76
2021/08/09 06:59:20;;;;;;;5.22;4.00;;;;;;;24.54;57.80;99569.43;1686988;85;22172;-79
2021/08/09 07:01:46;;;;;;;7.90;3.60;;;;;;;24.58;58.42;99566.00;1687196;85;20975;-76
2021/08/09 07:04:13;;;;;;;9.93;5.00;;;;;;;24.67;58.71;99556.52;1686920;85;21121;-75
2021/08/09 07:06:40;;;;;;;6.75;4.97;;;;;;;24.80;60.81;99553.44;1680790;85;20947;-76
2021/08/09 07:09:07;;;;;;;12.53;5.60;;;;;;;24.94;61.04;99540.67;1656323;85;20965;-76
2021/08/09 07:11:34;;;;;;;10.93;5.08;;;;;;;25.11;62.16;99539.57;1689430;83;21028;-76
2021/08/09 07:14:01;;;;;;;6.30;4.80;;;;;;;25.26;62.12;99546.67;1685231;84;21011;-77
2021/08/09 07:16:29;;;;;;;6.33;5.05;;;;;;;25.39;61.05;99560.40;1652530;86;21116;-77
2021/08/09 07:18:57;;;;;;;14.33;4.95;;;;;;;25.52;61.33;99560.66;1723403;81;20947;-76
2021/08/09 07:21:24;;;;;;;9.40;4.70;;;;;;;25.65;60.85;99575.81;1725434;83;21045;-77
2021/08/09 07:23:52;;;;;;;5.08;4.15;;;;;;;25.77;60.44;99575.90;1719144;82;21053;-76
2021/08/09 07:26:18;;;;;;;8.30;4.87;;;;;;;25.85;58.80;99569.78;1728168;83;21069;-78
2021/08/09 07:28:45;;;;;;;7.87;4.47;;;;;;;25.93;58.68;99564.88;1727888;83;21151;-79
2021/08/09 07:31:13;;;;;;;7.78;3.98;;;;;;;26.05;58.32;99564.31;1723570;83;20997;-77
2021/08/09 07:33:39;;;;;;;5.78;3.58;;;;;;;26.14;57.80;99567.41;1726822;82;20875;-78
2021/08/09 07:36:06;;;;;;;6.45;3.75;;;;;;;26.21;55.40;99562.31;1725094;82;20994;-78
2021/08/09 07:38:33;;;;;;;6.12;3.70;;;;;;;26.25;55.78;99561.66;1717768;83;21033;-79
2021/08/09 07:41:00;;;;;;;3.98;3.37;;;;;;;26.37;56.67;99566.76;1727583;83;21212;-79
2021/08/09 07:43:27;;;;;;;6.37;3.25;;;;;;;26.50;52.01;99572.02;1723323;83;20943;-80
2021/08/09 07:45:54;;;;;;;4.37;3.25;;;;;;;26.57;52.19;99578.92;1727431;83;20953;-79
2021/08/09 07:48:21;;;;;;;5.60;3.02;;;;;;;26.66;52.74;99582.63;1726657;83;21096;-78
2021/08/09 07:50:48;;;;;;;5.17;2.83;;;;;;;26.78;50.34;99577.83;1727789;83;21413;-72
2021/08/09 07:53:15;;;;;;;7.12;3.10;;;;;;;26.91;48.77;99580.86;1727757;83;21521;-70
2021/08/09 07:55:42;;;;;;;5.58;3.05;;;;;;;26.96;47.74;99586.05;1727695;81;20985;-74
2021/08/09 07:58:08;;;;;;;3.62;2.92;;;;;;;27.04;49.75;99588.94;1710097;81;21047;-74
2021/08/09 08:00:35;;;;;;;3.52;2.98;;;;;;;27.23;48.40;99583.18;1706446;83;21490;-71
2021/08/09 08:03:04;;;;;;;7.17;2.95;;;;;;;27.45;48.90;99587.23;1660923;85;21046;-73
2021/08/09 08:05:32;;;;;;;6.25;2.80;;;;;;;27.76;47.04;99591.33;1687958;83;20907;-71
2021/08/09 08:07:59;;;;;;;3.70;2.52;;;;;;;28.13;45.71;99591.02;1688039;83;20935;-75
2021/08/09 08:10:27;;;;;;;5.83;2.98;;;;;;;28.50;46.45;99586.23;1688550;85;20938;-75
2021/08/09 08:12:55;;;;;;;3.08;2.27;;;;;;;28.84;43.23;99586.71;1688232;84;20994;-75
2021/08/09 08:15:21;;;;;;;3.67;2.40;;;;;;;29.15;40.82;99592.81;1688443;85;21013;-75
2021/08/09 08:17:49;;;;;;;4.58;2.52;;;;;;;29.44;42.01;99593.56;1711497;81;21179;-75
2021/08/09 08:20:17;;;;;;;6.55;3.00;;;;;;;29.69;40.51;99594.30;1688292;84;20935;-75
2021/08/09 08:22:43;;;;;;;5.85;2.80;;;;;;;29.87;39.30;99600.28;1688240;85;20939;-75
2021/08/09 08:25:11;;;;;;;5.60;3.10;;;;;;;30.02;39.56;99600.10;1660953;85;21046;-76
2021/08/09 08:27:39;;;;;;;14.20;3.33;;;;;;;30.20;39.66;99608.86;1688256;85;20868;-76
2021/08/09 08:30:08;;;;;;;10.75;2.70;;;;;;;30.44;40.46;99604.34;1688240;84;21547;-75
2021/08/09 08:32:35;;;;;;;2.65;2.35;;;;;;;30.70;38.25;99605.20;1661263;85;20955;-75
2021/08/09 08:35:02;;;;;;;4.28;2.55;;;;;;;30.98;35.54;99614.86;1688669;83;21041;-75
2021/08/09 08:37:29;;;;;;;3.37;2.47;;;;;;;31.18;37.41;99623.97;1688184;84;20911;-75
2021/08/09 08:39:57;;;;;;;8.23;2.37;;;;;;;31.31;36.74;99630.40;1688252;84;20888;-75
2021/08/09 08:42:23;;;;;;;2.87;2.60;;;;;;;31.51;37.07;99629.53;1688419;84;20994;-76
2021/08/09 08:44:51;;;;;;;2.85;2.50;;;;;;;31.71;35.01;99628.50;1688282;84;21517;-75
2021/08/09 08:47:19;;;;;;;2.98;2.67;;;;;;;31.91;35.61;99632.45;1697623;81;20943;-75
2021/08/09 08:49:48;;;;;;;4.10;2.90;;;;;;;32.00;36.32;99636.79;1700920;83;20918;-75
2021/08/09 08:52:15;;;;;;;2.92;2.60;;;;;;;31.91;36.06;99645.22;1688239;85;20994;-75
2021/08/09 08:54:43;;;;;;;4.28;2.27;;;;;;;31.64;34.80;99640.85;1687343;84;21151;-72
2021/08/09 08:57:21;;;;;;;4.53;2.87;;;;;;;31.50;35.62;99644.96;1688439;85;21435;-74
2021/08/09 08:59:47;;;;;;;7.28;2.58;;;;;;;31.57;37.07;99638.88;1688318;85;20887;-72
2021/08/09 09:02:36;;;;;;;7.95;2.70;;;;;;;31.73;37.32;99637.34;1688143;84;22183;-73
2021/08/09 09:05:19;;;;;;;5.20;2.40;;;;;;;31.74;36.22;99634.05;1626325;88;21029;-73
2021/08/09 09:07:48;;;;;;;9.68;3.10;;;;;;;31.75;36.55;99627.13;1646969;86;21537;-73
2021/08/09 09:10:23;;;;;;;4.12;2.37;;;;;;;31.82;35.88;99607.61;1653774;85;20994;-72
2021/08/09 09:13:17;;;;;;;2.98;2.10;;;;;;;31.85;35.92;99603.85;1653932;86;20956;-72
2021/08/09 09:16:02;;;;;;;6.10;2.45;;;;;;;31.97;36.91;99593.70;1653746;86;20876;-74
2021/08/09 09:18:56;;;;;;;6.65;2.10;;;;;;;32.28;35.69;99583.88;1673829;83;20911;-74
2021/08/09 09:21:35;;;;;;;2.27;1.80;;;;;;;32.40;36.54;99592.93;1663955;85;21872;-73
2021/08/09 09:24:18;;;;;;;3.25;2.20;;;;;;;32.63;35.62;99598.75;1663789;86;21609;-74
2021/08/09 09:26:49;;;;;;;3.65;1.85;;;;;;;32.73;34.22;99604.03;1663849;84;21002;-74
2021/08/09 09:29:17;;;;;;;2.52;2.33;;;;;;;32.74;34.34;99606.24;1687866;84;21554;-74
2021/08/09 09:31:46;;;;;;;3.08;1.82;;;;;;;32.81;33.40;99603.15;1663797;86;21011;-74
2021/08/09 09:34:16;;;;;;;3.20;2.00;;;;;;;32.80;33.70;99597.30;1663950;86;21113;-74
2021/08/09 09:36:58;;;;;;;3.20;2.25;;;;;;;32.65;33.48;99595.61;1667568;84;21081;-73
2021/08/09 09:39:37;;;;;;;2.98;2.22;;;;;;;32.65;34.33;99593.40;1690253;84;21004;-73
2021/08/09 09:42:08;;;;;;;2.47;1.92;;;;;;;32.80;32.62;99592.41;1654447;86;20927;-73
2021/08/09 09:44:36;;;;;;;2.40;1.90;;;;;;;32.96;33.71;99588.50;1634983;86;21032;-74
2021/08/09 09:47:25;;;;;;;2.17;1.98;;;;;;;33.08;32.77;99575.44;1655694;85;21817;-75
2021/08/09 09:49:57;;;;;;;4.65;2.33;;;;;;;33.14;31.73;99575.78;1665173;85;21542;-73
2021/08/09 09:52:45;;;;;;;3.05;2.15;;;;;;;33.20;32.41;99568.05;1661907;85;21079;-72
2021/08/09 09:55:14;;;;;;;4.80;2.60;;;;;;;33.31;33.54;99567.80;1661584;85;21032;-72
2021/08/09 09:57:41;;;;;;;2.67;2.47;;;;;;;33.51;33.24;99576.53;1661623;85;21125;-72
2021/08/09 10:00:16;;;;;;;2.52;1.90;;;;;;;33.46;32.31;99567.36;1663334;85;21099;-72
2021/08/09 10:02:46;;;;;;;3.92;2.77;;;;;;;33.38;32.04;99563.23;1662968;85;21649;-72
2021/08/09 10:05:13;;;;;;;3.80;2.30;;;;;;;33.28;32.56;99560.84;1657204;85;21015;-73
2021/08/09 10:07:41;;;;;;;2.90;2.40;;;;;;;33.31;33.47;99567.80;1650916;85;20991;-71
2021/08/09 10:10:09;;;;;;;4.35;2.65;;;;;;;33.45;32.03;99565.78;1638326;87;20959;-71
2021/08/09 10:12:39;;;;;;;4.10;2.42;;;;;;;33.52;33.10;99551.84;1638380;87;20919;-71
2021/08/09 10:15:08;;;;;;;4.03;2.83;;;;;;;33.46;32.20;99552.34;1638266;87;20993;-72
2021/08/09 10:17:37;;;;;;;3.62;2.20;;;;;;;33.42;32.23;99558.81;1635700;86;21039;-72
2021/08/09 10:20:10;;;;;;;3.47;2.20;;;;;;;33.64;30.46;99543.80;1611295;88;21526;-74
2021/08/09 10:22:38;;;;;;;5.03;2.17;;;;;;;33.71;30.58;99546.96;1603818;89;20907;-73
2021/08/09 10:25:06;;;;;;;2.33;2.05;;;;;;;33.78;31.78;99546.02;1622406;88;21230;-73
2021/08/09 10:27:52;;;;;;;4.03;2.35;;;;;;;33.95;32.30;99537.98;1622359;88;21580;-73
2021/08/09 10:30:23;;;;;;;1.98;1.75;;;;;;;33.97;31.14;99537.50;1622532;88;20977;-73
2021/08/09 10:32:56;;;;;;;5.75;2.45;;;;;;;33.99;30.61;99525.00;1622604;88;20894;-73
2021/08/09 10:35:50;;;;;;;3.77;2.25;;;;;;;34.02;29.56;99519.78;1627824;85;21008;-75
2021/08/09 10:38:20;;;;;;;4.95;2.15;;;;;;;33.94;30.52;99528.48;1634380;86;21172;-74
2021/08/09 10:41:02;;;;;;;6.25;2.40;;;;;;;34.06;31.93;99516.13;1642175;86;20896;-71
2021/08/09 10:43:29;;;;;;;4.00;2.02;;;;;;;34.17;29.50;99515.61;1659081;86;20978;-73
2021/08/09 10:45:57;;;;;;;5.50;2.27;;;;;;;34.16;30.14;99519.73;1641220;86;20959;-73
2021/08/09 10:48:45;;;;;;;3.55;2.62;;;;;;;34.08;31.00;99510.75;1632673;86;21006;-72
2021/08/09 10:51:12;;;;;;;5.20;3.08;;;;;;;34.01;31.70;99514.72;1659316;85;21081;-72
2021/08/09 10:53:43;;;;;;;5.37;2.40;;;;;;;34.17;32.42;99518.46;1659124;86;20936;-72
2021/08/09 10:56:44;;;;;;;6.00;2.17;;;;;;;34.26;31.65;99514.17;1630671;87;20935;-72
2021/08/09 10:59:33;;;;;;;3.50;1.98;;;;;;;34.23;31.45;99517.97;1631125;88;20931;-72
2021/08/09 11:02:00;;;;;;;2.90;1.98;;;;;;;34.25;31.02;99516.86;1612947;86;20957;-72
2021/08/09 11:04:26;;;;;;;2.95;2.20;;;;;;;34.38;31.17;99517.49;1633894;86;23277;-74
2021/08/09 11:06:54;;;;;;;3.05;2.17;;;;;;;34.41;31.68;99512.27;1627230;85;38207;-74
2021/08/09 11:09:36;;;;;;;8.88;2.30;;;;;;;34.36;28.94;99505.78;1642235;86;20967;-74
2021/08/09 11:12:24;;;;;;;3.00;2.10;;;;;;;34.30;30.98;99510.52;1647638;86;20970;-73
2021/08/09 11:17:44;;;;;;;5.85;1.90;;;;;;;34.55;29.76;99515.86;1685495;85;20981;-74
2021/08/09 11:20:27;;;;;;;3.00;1.90;;;;;;;34.51;30.14;99510.17;1675950;84;20928;-70
2021/08/09 11:23:07;;;;;;;;;;;;;;;34.57;31.21;99510.47;1631661;87;21513;-73
2021/08/09 11:25:48;;;;;;;6.85;1.77;;;;;;;34.69;30.95;99512.92;1643534;86;22156;-74
2021/08/09 11:28:23;;;;;;;1.90;1.80;;;;;;;34.70;30.69;99511.66;1632659;87;21022;-74
2021/08/09 11:30:53;;;;;;;2.40;1.92;;;;;;;34.77;30.24;99509.25;1633764;87;21153;-72
2021/08/09 11:33:34;;;;;;;2.30;1.77;;;;;;;34.84;29.76;99510.20;1657834;86;21019;-72
2021/08/09 11:36:08;;;;;;;2.33;1.80;;;;;;;34.80;29.50;99508.13;1629391;86;21060;-73
2021/08/09 11:38:52;;;;;;;2.15;1.92;;;;;;;34.88;30.53;99515.88;1637341;87;21006;-73
2021/08/09 11:41:28;;;;;;;2.35;2.10;;;;;;;35.11;29.78;99510.05;1634159;87;21053;-71
2021/08/09 11:44:10;;;;;;;2.87;2.10;;;;;;;35.25;28.20;99509.30;1650265;86;21806;-73
2021/08/09 11:46:50;;;;;;;3.02;2.10;;;;;;;35.16;28.96;99501.47;1652664;86;21465;-73